createdAt,value
2019-05-06T00:01:49.326Z,7.50
2019-05-06T00:04:21.183Z,7.50
2019-05-06T00:06:54.598Z,7.50
2019-05-06T00:09:26.360Z,7.60
2019-05-06T00:11:57.604Z,7.60
2019-05-06T00:14:28.644Z,7.60
2019-05-06T00:17:00.175Z,7.50
2019-05-06T00:19:34.006Z,7.30
2019-05-06T00:22:04.887Z,7.30
2019-05-06T00:24:44.030Z,7.20
2019-05-06T00:27:24.726Z,7.10
2019-05-06T00:29:56.319Z,7.20
2019-05-06T00:32:27.257Z,7.20
2019-05-06T00:34:58.837Z,7.00
2019-05-06T00:37:30.376Z,7.10
2019-05-06T00:40:07.678Z,7.20
2019-05-06T00:42:48.832Z,7.10
2019-05-06T00:45:20.853Z,7.20
2019-05-06T00:47:53.602Z,7.30
2019-05-06T00:50:25.328Z,7.30
2019-05-06T00:52:58.256Z,7.20
2019-05-06T00:55:29.328Z,7.40
2019-05-06T00:58:00.271Z,7.40
2019-05-06T01:00:38.328Z,7.30
2019-05-06T01:03:09.897Z,7.20
2019-05-06T01:05:41.129Z,7.20
2019-05-06T01:08:14.140Z,7.20
2019-05-06T01:10:45.628Z,7.10
2019-05-06T01:13:48.190Z,7.20
2019-05-06T01:16:21.285Z,7.40
2019-05-06T01:18:54.171Z,7.30
2019-05-06T01:21:25.408Z,7.30
2019-05-06T01:23:56.958Z,7.20
2019-05-06T01:26:28.178Z,7.10
2019-05-06T01:28:59.439Z,7.10
2019-05-06T01:31:42.207Z,7.00
2019-05-06T01:34:04.421Z,7.00
2019-05-06T01:36:35.302Z,7.00
2019-05-06T01:39:17.448Z,6.90
2019-05-06T01:42:07.856Z,7.00
2019-05-06T01:44:39.186Z,7.00
2019-05-06T01:47:10.440Z,7.00
2019-05-06T01:49:44.223Z,7.00
2019-05-06T01:52:15.304Z,7.10
2019-05-06T01:54:47.053Z,7.50
2019-05-06T01:57:18.310Z,7.40
2019-05-06T01:59:50.142Z,7.30
2019-05-06T02:02:21.060Z,7.20
2019-05-06T02:04:54.091Z,7.10
2019-05-06T02:07:25.597Z,7.10
2019-05-06T02:09:56.868Z,7.00
2019-05-06T02:12:28.416Z,7.10
2019-05-06T02:15:00.051Z,7.10
2019-05-06T02:17:31.039Z,7.10
2019-05-06T02:20:04.070Z,7.60
2019-05-06T02:22:58.655Z,7.60
2019-05-06T02:25:36.299Z,7.40
2019-05-06T02:28:07.943Z,7.40
2019-05-06T02:30:56.788Z,7.50
2019-05-06T02:33:44.806Z,7.70
2019-05-06T02:36:38.969Z,7.50
2019-05-06T02:39:10.238Z,7.70
2019-05-06T02:41:43.016Z,7.80
2019-05-06T02:44:14.879Z,7.60
2019-05-06T02:46:48.905Z,7.40
2019-05-06T02:49:26.355Z,7.60
2019-05-06T02:51:58.183Z,7.90
2019-05-06T02:54:29.459Z,8.00
2019-05-06T02:57:03.921Z,7.70
2019-05-06T02:59:34.040Z,7.70
2019-05-06T03:02:05.363Z,7.50
2019-05-06T03:04:37.037Z,7.30
2019-05-06T03:07:08.769Z,7.30
2019-05-06T03:09:40.303Z,7.30
2019-05-06T03:12:13.556Z,7.30
2019-05-06T03:14:44.069Z,7.20
2019-05-06T03:17:15.449Z,7.20
2019-05-06T03:19:48.411Z,7.30
2019-05-06T03:22:34.680Z,7.30
2019-05-06T03:25:15.210Z,7.20
2019-05-06T03:27:47.090Z,7.00
2019-05-06T03:30:18.409Z,7.00
2019-05-06T03:33:23.295Z,7.00
2019-05-06T03:35:36.113Z,6.90
2019-05-06T03:37:56.495Z,6.90
2019-05-06T03:40:28.471Z,6.90
2019-05-06T03:43:02.621Z,6.90
2019-05-06T03:45:42.861Z,7.00
2019-05-06T03:48:18.380Z,7.00
2019-05-06T03:50:49.704Z,7.30
2019-05-06T03:53:23.278Z,7.20
2019-05-06T03:55:55.739Z,7.20
2019-05-06T03:58:27.764Z,7.20
2019-05-06T04:00:59.281Z,7.30
2019-05-06T04:03:43.949Z,7.30
2019-05-06T04:06:04.926Z,7.40
2019-05-06T04:08:36.905Z,7.40
2019-05-06T04:11:08.219Z,7.50
2019-05-06T04:13:43.567Z,7.40
2019-05-06T04:16:23.104Z,7.40
2019-05-06T04:19:04.024Z,7.60
2019-05-06T04:21:43.684Z,7.70
2019-05-06T04:24:35.455Z,7.70
2019-05-06T04:27:35.192Z,7.70
2019-05-06T04:30:06.555Z,7.70
2019-05-06T04:32:38.540Z,7.80
2019-05-06T04:35:13.245Z,7.70
2019-05-06T04:37:44.297Z,7.50
2019-05-06T04:40:16.410Z,7.50
2019-05-06T04:42:48.011Z,7.40
2019-05-06T04:45:18.975Z,7.50
2019-05-06T04:47:53.497Z,7.40
2019-05-06T04:50:24.436Z,7.50
2019-05-06T04:53:06.046Z,7.60
2019-05-06T04:55:38.237Z,7.60
2019-05-06T04:58:13.133Z,7.60
2019-05-06T05:00:44.530Z,7.60
2019-05-06T05:03:15.929Z,7.50
2019-05-06T05:05:47.347Z,7.60
2019-05-06T05:08:18.732Z,7.60
2019-05-06T05:10:55.841Z,7.60
2019-05-06T05:13:42.914Z,7.60
2019-05-06T05:16:33.171Z,7.70
2019-05-06T05:19:09.774Z,7.70
2019-05-06T05:21:42.941Z,7.70
2019-05-06T05:24:15.298Z,7.70
2019-05-06T05:26:47.280Z,7.70
2019-05-06T05:29:18.399Z,7.60
2019-05-06T05:31:49.376Z,7.70
2019-05-06T05:34:22.311Z,7.60
2019-05-06T05:36:54.083Z,7.70
2019-05-06T05:39:25.937Z,7.60
2019-05-06T05:42:00.409Z,7.80
2019-05-06T05:44:35.012Z,7.60
2019-05-06T05:47:06.069Z,7.80
2019-05-06T05:52:57.110Z,8.00
2019-05-06T05:55:29.025Z,8.00
2019-05-06T05:58:00.227Z,7.90
2019-05-06T06:00:34.135Z,8.00
2019-05-06T06:03:07.184Z,7.90
2019-05-06T06:05:38.689Z,7.90
2019-05-06T06:08:12.956Z,7.80
2019-05-06T06:10:53.864Z,7.90
2019-05-06T06:13:24.781Z,8.00
2019-05-06T06:16:15.080Z,8.00
2019-05-06T06:19:09.596Z,7.80
2019-05-06T06:21:48.782Z,7.80
2019-05-06T06:24:24.851Z,8.10
2019-05-06T06:26:56.940Z,8.00
2019-05-06T06:29:29.262Z,7.90
2019-05-06T06:32:25.112Z,7.90
2019-05-06T06:35:18.850Z,7.80
2019-05-06T06:38:13.277Z,7.70
2019-05-06T06:40:45.417Z,7.90
2019-05-06T06:43:22.913Z,8.00
2019-05-06T06:45:54.261Z,7.90
2019-05-06T06:48:27.865Z,7.90
2019-05-06T06:50:59.106Z,8.10
2019-05-06T06:53:32.729Z,8.00
2019-05-06T06:56:28.937Z,8.00
2019-05-06T06:59:07.644Z,8.10
2019-05-06T07:01:48.727Z,8.20
2019-05-06T07:04:27.942Z,8.20
2019-05-06T07:07:02.763Z,8.00
2019-05-06T07:09:33.711Z,8.00
2019-05-06T07:12:05.625Z,8.10
2019-05-06T07:14:37.185Z,8.20
2019-05-06T07:17:09.202Z,8.40
2019-05-06T07:19:44.749Z,8.60
2019-05-06T07:22:16.093Z,8.90
2019-05-06T07:24:47.562Z,8.80
2019-05-06T07:27:22.789Z,8.70
2019-05-06T07:29:54.919Z,8.80
2019-05-06T07:32:26.500Z,9.30
2019-05-06T07:34:57.539Z,9.40
2019-05-06T07:37:28.519Z,9.50
2019-05-06T07:40:00.292Z,9.40
2019-05-06T07:42:45.890Z,9.20
2019-05-06T07:45:32.947Z,9.20
2019-05-06T07:48:07.363Z,9.30
2019-05-06T07:50:38.847Z,9.30
2019-05-06T07:53:13.144Z,8.90
2019-05-06T07:55:44.491Z,8.90
2019-05-06T07:58:15.181Z,8.80
2019-05-06T08:00:47.139Z,8.90
2019-05-06T08:03:17.860Z,9.20
2019-05-06T08:05:57.864Z,9.50
2019-05-06T08:08:23.023Z,9.50
2019-05-06T08:10:54.837Z,9.70
2019-05-06T08:13:25.838Z,9.60
2019-05-06T08:15:57.409Z,9.70
2019-05-06T08:18:28.726Z,9.70
2019-05-06T08:21:02.482Z,9.80
2019-05-06T08:23:42.877Z,10.20
2019-05-06T08:26:17.717Z,10.20
2019-05-06T08:28:48.292Z,10.40
2019-05-06T08:31:22.369Z,10.60
2019-05-06T08:33:54.595Z,10.70
2019-05-06T08:36:33.665Z,10.80
2019-05-06T08:39:06.433Z,10.90
2019-05-06T08:41:38.500Z,11.00
2019-05-06T08:44:10.221Z,11.20
2019-05-06T08:46:43.151Z,11.30
2019-05-06T08:49:15.282Z,11.30
2019-05-06T08:51:56.613Z,11.40
2019-05-06T08:54:43.317Z,11.60
2019-05-06T08:57:14.935Z,11.80
2019-05-06T08:59:46.207Z,11.50
2019-05-06T09:02:19.149Z,11.80
2019-05-06T09:04:51.806Z,11.80
2019-05-06T09:07:23.879Z,11.80
2019-05-06T09:09:55.110Z,12.00
2019-05-06T09:12:26.696Z,12.10
2019-05-06T09:14:58.241Z,11.80
2019-05-06T09:17:30.145Z,11.80
2019-05-06T09:20:02.722Z,11.60
2019-05-06T09:22:34.761Z,11.50
2019-05-06T09:25:06.256Z,11.30
2019-05-06T09:28:03.032Z,11.40
2019-05-06T09:30:46.146Z,11.30
2019-05-06T09:33:19.866Z,11.30
2019-05-06T09:35:52.881Z,11.60
2019-05-06T09:38:23.952Z,11.80
2019-05-06T09:40:55.842Z,11.90
2019-05-06T09:43:27.443Z,11.70
2019-05-06T09:45:59.125Z,11.70
2019-05-06T09:48:49.610Z,11.70
2019-05-06T09:51:22.119Z,11.80
2019-05-06T09:54:17.292Z,11.90
2019-05-06T09:56:53.461Z,11.60
2019-05-06T09:59:25.123Z,11.60
2019-05-06T10:01:56.686Z,12.00
2019-05-06T10:04:28.703Z,12.00
2019-05-06T10:07:02.614Z,12.10
2019-05-06T10:09:35.394Z,12.20
2019-05-06T10:12:06.856Z,12.20
2019-05-06T10:14:38.251Z,12.30
2019-05-06T10:17:09.570Z,12.40
2019-05-06T10:19:42.877Z,12.60
2019-05-06T10:22:14.534Z,12.50
2019-05-06T10:24:46.447Z,12.60
2019-05-06T10:27:17.807Z,12.90
2019-05-06T10:30:14.149Z,12.60
2019-05-06T10:32:54.656Z,12.60
2019-05-06T10:35:29.467Z,12.40
2019-05-06T10:38:33.307Z,12.60
2019-05-06T10:41:08.867Z,12.40
2019-05-06T10:43:52.850Z,12.60
2019-05-06T10:46:24.418Z,12.70
2019-05-06T10:48:55.804Z,12.60
2019-05-06T10:51:33.104Z,12.90
2019-05-06T10:54:04.696Z,12.80
2019-05-06T10:56:57.389Z,12.90
2019-05-06T10:59:28.176Z,13.00
2019-05-06T11:02:05.322Z,13.30
2019-05-06T11:04:35.569Z,13.60
2019-05-06T11:07:06.926Z,13.70
2019-05-06T11:09:38.471Z,13.80
2019-05-06T11:12:10.029Z,13.60
2019-05-06T11:14:41.609Z,14.10
2019-05-06T11:17:13.222Z,14.70
2019-05-06T11:19:44.619Z,14.80
2019-05-06T11:22:15.279Z,15.10
2019-05-06T11:24:46.695Z,15.00
2019-05-06T11:27:28.726Z,15.30
2019-05-06T11:29:53.966Z,14.70
2019-05-06T11:32:35.727Z,14.60
2019-05-06T11:35:12.412Z,14.40
2019-05-06T11:37:54.520Z,14.40
2019-05-06T11:40:26.424Z,14.30
2019-05-06T11:42:57.995Z,14.20
2019-05-06T11:45:29.577Z,14.10
2019-05-06T11:48:00.836Z,13.90
2019-05-06T11:50:33.439Z,13.90
2019-05-06T11:53:05.172Z,13.80
2019-05-06T11:55:38.762Z,13.90
2019-05-06T11:58:28.877Z,14.10
2019-05-06T12:01:04.010Z,14.30
2019-05-06T12:03:35.556Z,14.40
2019-05-06T12:06:06.594Z,14.50
2019-05-06T12:08:38.187Z,14.70
2019-05-06T12:11:12.641Z,15.20
2019-05-06T12:13:43.330Z,15.20
2019-05-06T12:16:14.467Z,15.20
2019-05-06T12:18:46.112Z,15.70
2019-05-06T12:21:19.314Z,16.00
2019-05-06T12:23:50.394Z,15.80
2019-05-06T12:26:22.103Z,15.60
2019-05-06T12:28:53.691Z,15.60
2019-05-06T12:31:25.082Z,16.30
2019-05-06T12:33:56.112Z,16.70
2019-05-06T12:36:27.706Z,17.20
2019-05-06T12:39:23.017Z,17.60
2019-05-06T12:42:14.440Z,17.80
2019-05-06T12:45:03.581Z,18.50
2019-05-06T12:47:54.439Z,18.50
2019-05-06T12:50:25.713Z,18.20
2019-05-06T12:52:57.854Z,18.10
2019-05-06T12:55:29.699Z,17.90
2019-05-06T12:58:02.929Z,17.40
2019-05-06T13:00:34.595Z,16.50
2019-05-06T13:03:06.628Z,15.60
2019-05-06T13:05:38.256Z,15.50
2019-05-06T13:08:09.916Z,15.40
2019-05-06T13:10:42.091Z,15.50
2019-05-06T13:13:13.004Z,15.60
2019-05-06T13:15:45.017Z,15.80
2019-05-06T13:18:16.775Z,16.30
2019-05-06T13:20:51.405Z,16.30
2019-05-06T13:23:26.989Z,16.20
2019-05-06T13:25:58.612Z,16.30
2019-05-06T13:28:33.329Z,17.30
2019-05-06T13:31:16.163Z,17.50
2019-05-06T13:33:44.293Z,17.30
2019-05-06T13:36:15.873Z,17.20
2019-05-06T13:38:47.611Z,17.40
2019-05-06T13:41:18.869Z,17.50
2019-05-06T13:43:55.870Z,17.40
2019-05-06T13:46:29.425Z,17.00
2019-05-06T13:49:18.225Z,16.10
2019-05-06T13:52:03.375Z,15.80
2019-05-06T13:54:32.045Z,15.90
2019-05-06T13:57:03.674Z,15.90
2019-05-06T13:59:36.957Z,15.90
2019-05-06T14:02:18.627Z,16.20
2019-05-06T14:04:56.399Z,16.70
2019-05-06T14:07:28.685Z,17.90
2019-05-06T14:10:02.498Z,18.00
2019-05-06T14:12:33.458Z,18.60
2019-05-06T14:15:05.273Z,18.50
2019-05-06T14:17:36.834Z,19.10
2019-05-06T14:20:08.613Z,19.00
2019-05-06T14:22:39.919Z,19.20
2019-05-06T14:25:33.596Z,19.40
2019-05-06T14:28:19.272Z,19.30
2019-05-06T14:31:03.343Z,19.70
2019-05-06T14:33:35.107Z,19.50
2019-05-06T14:36:06.276Z,19.10
2019-05-06T14:38:37.868Z,18.50
2019-05-06T14:41:27.023Z,17.80
2019-05-06T14:43:56.781Z,17.40
2019-05-06T14:46:33.154Z,17.10
2019-05-06T14:49:04.991Z,16.20
2019-05-06T14:51:36.901Z,16.00
2019-05-06T14:54:07.911Z,15.70
2019-05-06T14:56:46.986Z,15.90
2019-05-06T14:59:18.667Z,16.00
2019-05-06T15:01:49.365Z,15.60
2019-05-06T15:04:23.036Z,15.20
2019-05-06T15:06:54.321Z,15.10
2019-05-06T15:09:26.169Z,14.80
2019-05-06T15:11:57.753Z,14.90
2019-05-06T15:14:29.361Z,15.40
2019-05-06T15:17:02.199Z,15.20
2019-05-06T15:19:33.668Z,14.90
2019-05-06T15:22:04.972Z,14.90
2019-05-06T15:24:36.915Z,15.10
2019-05-06T15:27:08.386Z,15.00
2019-05-06T15:29:41.795Z,14.90
2019-05-06T15:32:17.715Z,15.00
2019-05-06T15:35:22.172Z,15.20
2019-05-06T15:37:59.339Z,15.30
2019-05-06T15:40:36.024Z,15.70
2019-05-06T15:43:05.300Z,16.20
2019-05-06T15:45:37.450Z,15.90
2019-05-06T15:48:08.452Z,16.20
2019-05-06T15:50:43.242Z,16.40
2019-05-06T15:53:13.102Z,16.30
2019-05-06T15:55:45.006Z,16.50
2019-05-06T15:58:16.673Z,16.80
2019-05-06T16:00:48.280Z,16.70
2019-05-06T16:03:22.429Z,16.90
2019-05-06T16:05:55.226Z,16.80
2019-05-06T16:08:26.732Z,16.80
2019-05-06T16:10:58.828Z,17.00
2019-05-06T16:13:30.473Z,16.80
2019-05-06T16:16:02.951Z,16.50
2019-05-06T16:18:35.278Z,16.00
2019-05-06T16:21:07.078Z,15.80
2019-05-06T16:23:49.185Z,15.50
2019-05-06T16:26:22.806Z,15.30
2019-05-06T16:28:53.293Z,15.20
2019-05-06T16:31:24.894Z,14.90
2019-05-06T16:33:56.566Z,14.70
2019-05-06T16:36:28.274Z,14.60
2019-05-06T16:39:00.052Z,14.40
2019-05-06T16:41:31.734Z,14.50
2019-05-06T16:44:02.757Z,14.40
2019-05-06T16:46:34.409Z,14.20
2019-05-06T16:49:06.060Z,14.20
2019-05-06T16:51:37.676Z,14.20
2019-05-06T16:54:09.367Z,14.30
2019-05-06T16:57:03.678Z,14.30
2019-05-06T16:59:34.738Z,14.40
2019-05-06T17:02:13.792Z,14.40
2019-05-06T17:04:52.546Z,14.20
2019-05-06T17:07:23.709Z,14.30
2019-05-06T17:09:55.079Z,14.40
2019-05-06T17:12:26.924Z,14.60
2019-05-06T17:14:58.508Z,14.30
2019-05-06T17:17:43.066Z,14.30
2019-05-06T17:20:03.166Z,14.20
2019-05-06T17:22:35.041Z,14.30
2019-05-06T17:25:07.042Z,14.10
2019-05-06T17:27:40.074Z,14.00
2019-05-06T17:30:34.685Z,14.00
2019-05-06T17:33:36.539Z,13.90
2019-05-06T17:36:12.563Z,14.10
2019-05-06T17:38:48.375Z,14.00
2019-05-06T17:41:20.232Z,13.90
2019-05-06T17:43:52.128Z,13.80
2019-05-06T17:46:26.194Z,13.70
2019-05-06T17:49:06.791Z,13.70
2019-05-06T17:51:56.829Z,13.70
2019-05-06T17:54:28.720Z,13.70
2019-05-06T17:57:03.836Z,13.50
2019-05-06T17:59:36.843Z,13.50
2019-05-06T18:02:10.334Z,13.20
2019-05-06T18:04:43.050Z,13.20
2019-05-06T18:07:14.610Z,13.00
2019-05-06T18:09:47.775Z,13.10
2019-05-06T18:12:19.106Z,13.10
2019-05-06T18:14:53.424Z,13.10
2019-05-06T18:17:25.348Z,12.90
2019-05-06T18:19:57.277Z,13.10
2019-05-06T18:22:28.300Z,13.00
2019-05-06T18:25:02.098Z,13.10
2019-05-06T18:27:33.716Z,13.00
2019-05-06T18:30:17.736Z,12.70
2019-05-06T18:32:39.167Z,12.80
2019-05-06T18:35:13.067Z,12.80
2019-05-06T18:37:45.494Z,12.60
2019-05-06T18:40:16.885Z,12.50
2019-05-06T18:42:48.837Z,12.50
2019-05-06T18:45:22.045Z,12.30
2019-05-06T18:47:53.780Z,12.20
2019-05-06T18:50:25.456Z,12.10
2019-05-06T18:52:57.287Z,12.10
2019-05-06T18:55:29.366Z,12.00
2019-05-06T18:58:02.279Z,11.90
2019-05-06T19:00:34.303Z,11.90
2019-05-06T19:03:05.748Z,11.90
2019-05-06T19:05:39.292Z,11.90
2019-05-06T19:08:22.697Z,11.90
2019-05-06T19:10:54.784Z,12.00
2019-05-06T19:13:27.034Z,11.90
2019-05-06T19:15:58.932Z,12.00
2019-05-06T19:18:31.135Z,12.10
2019-05-06T19:21:02.996Z,11.90
2019-05-06T19:23:35.001Z,11.80
2019-05-06T19:26:06.448Z,11.70
2019-05-06T19:28:38.404Z,11.70
2019-05-06T19:31:12.206Z,11.60
2019-05-06T19:33:43.176Z,11.60
2019-05-06T19:36:14.941Z,11.50
2019-05-06T19:38:46.029Z,11.30
2019-05-06T19:41:18.167Z,11.40
2019-05-06T19:43:49.771Z,11.30
2019-05-06T19:46:21.908Z,11.20
2019-05-06T19:48:53.787Z,11.10
2019-05-06T19:51:25.853Z,11.10
2019-05-06T19:53:58.010Z,11.00
2019-05-06T19:56:30.256Z,11.00
2019-05-06T19:59:02.181Z,10.90
2019-05-06T20:01:34.598Z,10.90
2019-05-06T20:04:06.462Z,10.80
2019-05-06T20:06:47.155Z,10.70
2019-05-06T20:09:46.912Z,10.60
2019-05-06T20:12:36.783Z,10.50
2019-05-06T20:15:26.404Z,10.40
2019-05-06T20:17:58.198Z,10.40
2019-05-06T20:20:32.675Z,10.30
2019-05-06T20:23:03.337Z,10.30
2019-05-06T20:25:37.138Z,10.30
2019-05-06T20:28:09.023Z,10.20
2019-05-06T20:30:42.298Z,10.10
2019-05-06T20:33:14.700Z,10.10
2019-05-06T20:35:46.382Z,9.80
2019-05-06T20:38:17.811Z,9.90
2019-05-06T20:40:49.156Z,9.90
2019-05-06T20:43:23.933Z,9.90
2019-05-06T20:45:55.163Z,9.90
2019-05-06T20:48:26.457Z,9.90
2019-05-06T20:50:58.439Z,9.90
2019-05-06T20:53:29.758Z,9.80
2019-05-06T20:56:02.778Z,9.70
2019-05-06T20:58:33.963Z,9.70
2019-05-06T21:01:05.613Z,9.60
2019-05-06T21:03:36.545Z,9.60
2019-05-06T21:06:08.339Z,9.50
2019-05-06T21:08:42.035Z,9.50
2019-05-06T21:11:25.701Z,9.50
2019-05-06T21:13:46.963Z,9.40
2019-05-06T21:16:18.396Z,9.40
2019-05-06T21:18:51.974Z,9.20
2019-05-06T21:21:22.631Z,9.10
2019-05-06T21:23:54.247Z,9.00
2019-05-06T21:26:25.582Z,9.00
2019-05-06T21:28:57.487Z,9.10
2019-05-06T21:31:29.055Z,9.00
2019-05-06T21:34:00.603Z,9.00
2019-05-06T21:36:31.886Z,9.00
2019-05-06T21:39:03.593Z,8.90
2019-05-06T21:41:34.928Z,8.80
2019-05-06T21:44:06.428Z,8.70
2019-05-06T21:46:37.802Z,8.70
2019-05-06T21:49:08.926Z,8.70
2019-05-06T21:51:42.494Z,8.70
2019-05-06T21:54:13.599Z,8.70
2019-05-06T21:56:44.876Z,8.70
2019-05-06T21:59:16.968Z,8.50
2019-05-06T22:01:48.056Z,8.30
2019-05-06T22:04:19.764Z,8.20
2019-05-06T22:06:52.397Z,8.00
2019-05-06T22:09:23.838Z,7.90
2019-05-06T22:11:55.101Z,7.90
2019-05-06T22:14:26.929Z,7.80
2019-05-06T22:16:58.590Z,7.80
2019-05-06T22:19:32.036Z,7.90
2019-05-06T22:22:05.666Z,7.90
2019-05-06T22:24:57.928Z,7.70
2019-05-06T22:27:29.844Z,7.70
2019-05-06T22:30:03.268Z,7.70
2019-05-06T22:32:45.910Z,7.60
2019-05-06T22:35:18.833Z,7.50
2019-05-06T22:37:52.747Z,7.50
2019-05-06T22:40:24.099Z,7.40
2019-05-06T22:42:55.355Z,7.40
2019-05-06T22:45:26.387Z,7.20
2019-05-06T22:47:57.945Z,7.10
2019-05-06T22:50:29.350Z,7.20
2019-05-06T22:53:02.329Z,7.30
2019-05-06T22:55:33.988Z,7.20
2019-05-06T22:58:05.864Z,7.20
2019-05-06T23:00:42.549Z,7.20
2019-05-06T23:03:17.227Z,7.30
2019-05-06T23:05:47.657Z,7.20
2019-05-06T23:08:18.600Z,7.20
2019-05-06T23:10:50.149Z,7.10
2019-05-06T23:13:23.073Z,6.90
2019-05-06T23:15:54.630Z,6.90
2019-05-06T23:18:26.361Z,6.90
2019-05-06T23:20:58.291Z,6.80
2019-05-06T23:23:30.151Z,6.90
2019-05-06T23:26:18.943Z,6.80
2019-05-06T23:28:52.529Z,6.50
2019-05-06T23:31:24.511Z,6.30
2019-05-06T23:33:55.985Z,6.30
2019-05-06T23:36:28.840Z,6.40
2019-05-06T23:40:04.475Z,6.30
2019-05-06T23:43:29.390Z,6.50
2019-05-06T23:46:53.952Z,6.30
2019-05-06T23:50:18.515Z,6.00
2019-05-06T23:53:43.606Z,6.10
2019-05-06T23:56:42.906Z,6.10
2019-05-06T23:59:15.008Z,6.10
